createdAt,value
2018-04-05T00:12:59.588Z,4.60
2018-04-05T00:15:44.567Z,5.67
2018-04-05T00:55:36.698Z,5.33
2018-04-05T00:58:21.670Z,5.13
2018-04-05T01:01:06.530Z,5.47
2018-04-05T01:03:51.501Z,6.20
2018-04-05T01:06:36.438Z,4.67
2018-04-05T01:09:21.292Z,4.90
2018-04-05T01:12:06.250Z,5.10
2018-04-05T03:14:18.453Z,6.37
2018-04-05T03:16:45.972Z,6.10
2018-04-05T03:19:13.501Z,7.53
2018-04-05T03:21:41.029Z,6.40
2018-04-05T03:24:08.559Z,6.17
2018-04-05T03:26:36.084Z,6.43
2018-04-05T03:29:03.621Z,6.50
2018-04-05T03:31:31.183Z,7.23
2018-04-05T03:33:59.500Z,8.40
2018-04-05T03:36:27.868Z,8.00
2018-04-05T03:38:55.400Z,8.37
2018-04-05T03:41:22.924Z,8.60
2018-04-05T03:43:50.449Z,9.53
2018-04-05T03:46:18.012Z,9.20
2018-04-05T03:48:45.536Z,8.73
2018-04-05T03:51:13.112Z,8.30
2018-04-05T03:53:40.670Z,10.23
2018-04-05T03:56:08.202Z,7.90
2018-04-05T03:58:35.733Z,7.67
2018-04-05T04:01:03.260Z,8.00
2018-04-05T04:03:30.781Z,8.27
2018-04-05T04:05:58.316Z,8.27
2018-04-05T04:08:25.844Z,7.37
2018-04-05T04:10:53.389Z,7.60
2018-04-05T04:13:20.953Z,7.60
2018-04-05T04:15:50.098Z,7.07
2018-04-05T04:18:18.411Z,8.50
2018-04-05T04:20:45.940Z,8.73
2018-04-05T04:23:13.508Z,7.87
2018-04-05T04:25:41.037Z,6.57
2018-04-05T04:28:08.557Z,5.83
2018-04-05T04:30:36.085Z,7.23
2018-04-05T04:33:03.620Z,6.33
2018-04-05T04:35:31.191Z,7.00
2018-04-05T04:37:58.716Z,6.93
2018-04-05T04:40:26.244Z,6.23
2018-04-05T04:42:54.185Z,7.23
2018-04-05T04:45:22.309Z,6.30
2018-04-05T04:47:50.960Z,7.90
2018-04-05T04:50:19.483Z,6.57
2018-04-05T04:52:47.827Z,9.83
2018-04-05T04:55:15.551Z,6.70
2018-04-05T04:57:43.995Z,6.83
2018-04-05T05:00:11.548Z,5.93
2018-04-05T05:02:39.206Z,6.77
2018-04-05T05:05:06.752Z,5.97
2018-04-05T05:07:34.287Z,6.40
2018-04-05T05:10:02.674Z,6.43
2018-04-05T05:12:30.225Z,6.40
2018-04-05T05:14:57.800Z,6.70
2018-04-05T05:17:25.328Z,6.80
2018-04-05T05:19:53.445Z,7.13
2018-04-05T05:22:21.087Z,5.10
2018-04-05T05:24:48.615Z,6.20
2018-04-05T05:27:16.936Z,5.57
2018-04-05T05:29:44.621Z,6.30
2018-04-05T05:32:12.160Z,6.60
2018-04-05T05:34:40.555Z,6.87
2018-04-05T05:37:08.417Z,5.97
2018-04-05T05:39:36.884Z,6.60
2018-04-05T05:42:04.430Z,8.50
2018-04-05T05:44:31.958Z,5.47
2018-04-05T05:47:00.383Z,5.10
2018-04-05T05:49:28.888Z,4.90
2018-04-05T05:51:57.353Z,5.40
2018-04-05T05:54:25.695Z,5.40
2018-04-05T05:56:54.022Z,5.40
2018-04-05T05:59:21.600Z,5.23
2018-04-05T06:01:49.130Z,4.80
2018-04-05T06:04:17.604Z,5.40
2018-04-05T06:06:46.065Z,4.70
2018-04-05T06:09:14.420Z,4.50
2018-04-05T06:11:43.020Z,4.20
2018-04-05T06:14:11.548Z,4.37
2018-04-05T06:16:40.919Z,3.50
2018-04-05T06:19:10.620Z,4.17
2018-04-05T06:21:38.162Z,3.70
2018-04-05T06:24:14.311Z,3.80
2018-04-05T06:26:42.682Z,3.90
2018-04-05T06:29:14.745Z,2.80
2018-04-05T06:31:43.103Z,3.87
2018-04-05T06:34:12.484Z,3.00
2018-04-05T06:36:41.953Z,3.70
2018-04-05T06:39:12.911Z,2.40
2018-04-05T06:41:41.304Z,3.53
2018-04-05T06:44:15.726Z,3.53
2018-04-05T06:46:45.187Z,3.00
2018-04-05T06:49:14.142Z,3.20
2018-04-05T06:51:42.486Z,2.80
2018-04-05T06:54:12.986Z,2.70
2018-04-05T06:56:43.475Z,3.20
2018-04-05T06:59:11.590Z,3.03
2018-04-05T07:01:40.908Z,3.03
2018-04-05T07:04:09.257Z,3.07
2018-04-05T07:06:38.587Z,2.93
2018-04-05T07:09:07.423Z,3.10
2018-04-05T07:11:36.550Z,2.93
2018-04-05T07:14:05.626Z,2.50
2018-04-05T07:16:34.217Z,3.17
2018-04-05T07:19:03.570Z,2.63
2018-04-05T07:21:32.749Z,3.10
2018-04-05T07:24:00.349Z,2.87
2018-04-05T07:26:30.284Z,2.93
2018-04-05T07:28:58.793Z,2.77
2018-04-05T07:31:29.415Z,2.90
2018-04-05T07:33:58.835Z,2.17
2018-04-05T07:36:28.082Z,2.43
2018-04-05T07:38:59.259Z,3.30
2018-04-05T07:41:35.622Z,2.27
2018-04-05T07:44:05.272Z,2.70
2018-04-05T07:46:34.835Z,2.60
2018-04-05T07:49:05.941Z,2.43
2018-04-05T07:51:35.140Z,2.83
2018-04-05T07:54:04.565Z,2.53
2018-04-05T07:56:35.713Z,2.07
2018-04-05T07:59:07.322Z,2.10
2018-04-05T08:01:36.984Z,2.63
2018-04-05T08:04:04.819Z,2.27
2018-04-05T08:06:39.389Z,2.43
2018-04-05T08:09:07.909Z,2.30
2018-04-05T08:11:38.422Z,2.03
2018-04-05T08:14:07.358Z,2.20
2018-04-05T08:16:37.497Z,2.47
2018-04-05T08:19:08.198Z,2.30
2018-04-05T08:21:38.121Z,3.13
2018-04-05T08:24:06.873Z,2.87
2018-04-05T08:26:40.641Z,2.73
2018-04-05T08:29:10.952Z,2.73
2018-04-05T08:31:39.602Z,2.20
2018-04-05T08:34:10.807Z,2.20
2018-04-05T08:36:41.578Z,1.97
2018-04-05T08:39:10.453Z,2.90
2018-04-05T08:41:39.833Z,2.00
2018-04-05T08:44:09.275Z,2.80
2018-04-05T08:46:45.597Z,2.43
2018-04-05T08:49:14.328Z,2.30
2018-04-05T08:51:44.751Z,2.00
2018-04-05T08:54:14.465Z,2.80
2018-04-05T08:56:44.655Z,2.20
2018-04-05T08:59:14.849Z,2.10
2018-04-05T09:01:44.588Z,2.80
2018-04-05T09:04:15.009Z,2.43
2018-04-05T09:06:42.802Z,1.90
2018-04-05T09:09:11.957Z,2.60
2018-04-05T09:11:51.755Z,4.50
2018-04-05T09:14:23.215Z,2.10
2018-04-05T09:16:54.667Z,1.80
2018-04-05T09:19:25.141Z,3.10
2018-04-05T09:21:56.329Z,1.77
2018-04-05T09:24:25.999Z,1.70
2018-04-05T09:26:56.558Z,2.00
2018-04-05T09:29:24.904Z,2.03
2018-04-05T09:31:55.100Z,1.87
2018-04-05T09:34:26.147Z,3.00
2018-04-05T09:36:55.663Z,1.97
2018-04-05T09:39:24.437Z,1.57
2018-04-05T09:41:55.571Z,2.13
2018-04-05T09:44:25.867Z,1.90
2018-04-05T09:46:55.770Z,3.47
2018-04-05T09:49:29.078Z,2.10
2018-04-05T09:51:59.022Z,1.80
2018-04-05T09:54:33.005Z,1.57
2018-04-05T09:57:07.968Z,1.17
2018-04-05T09:59:38.806Z,1.30
2018-04-05T10:02:09.197Z,1.10
2018-04-05T10:04:41.394Z,1.50
2018-04-05T10:07:09.843Z,1.20
2018-04-05T10:09:40.676Z,1.17
2018-04-05T10:12:09.093Z,1.30
2018-04-05T10:14:47.095Z,1.20
2018-04-05T10:17:15.405Z,1.47
2018-04-05T10:19:47.562Z,1.50
2018-04-05T10:22:17.717Z,1.43
2018-04-05T10:24:45.921Z,1.23
2018-04-05T10:27:14.918Z,1.33
2018-04-05T10:29:44.246Z,1.07
2018-04-05T10:32:23.673Z,1.40
2018-04-05T10:34:54.784Z,2.60
2018-04-05T10:37:28.106Z,0.90
2018-04-05T10:39:55.788Z,1.20
2018-04-05T10:42:26.894Z,1.10
2018-04-05T10:45:04.179Z,1.30
2018-04-05T10:47:31.838Z,1.07
2018-04-05T10:50:05.954Z,1.10
2018-04-05T10:52:35.906Z,1.30
2018-04-05T10:55:05.877Z,1.40
2018-04-05T10:57:51.917Z,1.33
2018-04-05T11:00:22.234Z,1.20
2018-04-05T11:02:50.905Z,1.20
2018-04-05T11:05:21.218Z,1.33
2018-04-05T11:07:57.593Z,1.20
2018-04-05T11:10:25.997Z,2.03
2018-04-05T11:13:04.995Z,1.00
2018-04-05T11:15:36.021Z,1.10
2018-04-05T11:18:04.652Z,0.90
2018-04-05T11:20:38.638Z,1.10
2018-04-05T11:23:08.646Z,1.30
2018-04-05T11:25:39.379Z,0.90
2018-04-05T11:28:13.822Z,0.97
2018-04-05T11:30:58.766Z,1.10
2018-04-05T11:33:30.191Z,1.00
2018-04-05T11:36:00.414Z,1.23
2018-04-05T11:38:32.706Z,1.53
2018-04-05T11:41:05.401Z,1.20
2018-04-05T11:43:34.914Z,1.17
2018-04-05T11:46:07.892Z,1.53
2018-04-05T11:48:39.046Z,1.07
2018-04-05T11:51:08.602Z,1.13
2018-04-05T11:53:38.445Z,1.50
2018-04-05T11:56:11.940Z,1.37
2018-04-05T11:58:41.031Z,1.60
2018-04-05T12:01:10.267Z,1.33
2018-04-05T12:03:38.681Z,1.20
2018-04-05T12:06:09.030Z,1.70
2018-04-05T12:08:36.585Z,1.23
2018-04-05T12:11:07.446Z,1.20
2018-04-05T12:13:40.002Z,1.57
2018-04-05T12:16:09.213Z,1.70
2018-04-05T12:18:46.019Z,1.00
2018-04-05T12:21:14.770Z,1.27
2018-04-05T12:23:45.233Z,1.30
2018-04-05T12:26:16.380Z,1.40
2018-04-05T12:28:45.969Z,1.20
2018-04-05T12:31:17.813Z,1.40
2018-04-05T12:33:50.304Z,1.50
2018-04-05T12:36:18.761Z,1.30
2018-04-05T12:38:48.453Z,1.23
2018-04-05T12:41:18.705Z,1.37
2018-04-05T12:44:01.423Z,1.43
2018-04-05T12:46:31.001Z,1.20
2018-04-05T12:49:01.504Z,1.57
2018-04-05T12:51:35.259Z,1.40
2018-04-05T12:54:05.118Z,1.37
2018-04-05T12:56:34.462Z,1.20
2018-04-05T12:59:04.952Z,1.40
2018-04-05T13:01:36.438Z,1.27
2018-04-05T13:04:04.099Z,1.10
2018-04-05T13:06:32.985Z,1.60
2018-04-05T13:09:04.326Z,1.17
2018-04-05T13:11:33.911Z,1.67
2018-04-05T13:16:39.289Z,1.67
2018-04-05T13:19:09.732Z,2.00
2018-04-05T13:21:38.380Z,1.33
2018-04-05T13:24:10.492Z,1.57
2018-04-05T13:26:48.771Z,1.40
2018-04-05T13:29:18.540Z,1.73
2018-04-05T13:31:47.946Z,1.30
2018-04-05T13:34:21.944Z,1.70
2018-04-05T13:36:53.998Z,1.40
2018-04-05T13:39:22.983Z,1.50
2018-04-05T13:41:55.475Z,1.27
2018-04-05T13:44:24.118Z,2.03
2018-04-05T13:46:54.587Z,1.90
2018-04-05T13:49:23.565Z,1.40
2018-04-05T13:51:52.864Z,2.10
2018-04-05T13:54:24.752Z,1.53
2018-04-05T13:56:53.973Z,1.10
2018-04-05T13:59:26.438Z,2.97
2018-04-05T14:01:59.968Z,1.90
2018-04-05T14:04:29.356Z,1.57
2018-04-05T14:06:59.873Z,1.20
2018-04-05T14:09:30.215Z,1.67
2018-04-05T14:14:37.332Z,1.83
2018-04-05T14:17:09.372Z,1.10
2018-04-05T14:19:39.087Z,1.70
2018-04-05T14:22:08.249Z,1.43
2018-04-05T14:24:36.100Z,1.50
2018-04-05T14:27:09.393Z,1.37
2018-04-05T14:29:41.986Z,2.07
2018-04-05T14:32:11.552Z,1.20
2018-04-05T14:34:42.033Z,0.90
2018-04-05T14:37:11.568Z,0.93
2018-04-05T14:42:24.916Z,1.00
2018-04-05T14:44:55.748Z,0.93
2018-04-05T14:47:27.359Z,1.00
2018-04-05T14:49:58.535Z,1.10
2018-04-05T14:52:28.722Z,1.13
2018-04-05T14:55:11.470Z,1.07
2018-04-05T14:57:41.929Z,1.20
2018-04-05T15:00:12.084Z,0.80
2018-04-05T15:02:46.561Z,1.10
2018-04-05T15:05:24.270Z,1.47
2018-04-05T15:07:56.672Z,1.43
2018-04-05T15:13:13.928Z,1.20
2018-04-05T15:15:43.669Z,1.33
2018-04-05T15:18:13.323Z,2.10
2018-04-05T15:20:44.106Z,1.20
2018-04-05T15:23:16.805Z,1.27
2018-04-05T15:25:46.256Z,1.33
2018-04-05T15:28:19.016Z,1.50
2018-04-05T15:30:50.196Z,1.40
2018-04-05T15:33:18.260Z,1.40
2018-04-05T15:35:46.267Z,1.90
2018-04-05T15:38:17.276Z,1.43
2018-04-05T15:40:52.031Z,2.00
2018-04-05T15:43:24.700Z,1.80
2018-04-05T15:45:56.427Z,1.97
2018-04-05T15:48:27.260Z,1.73
2018-04-05T15:50:57.269Z,2.43
2018-04-05T15:53:27.907Z,2.03
2018-04-05T15:55:58.383Z,2.47
2018-04-05T15:58:34.368Z,2.13
2018-04-05T16:01:07.501Z,2.40
2018-04-05T16:06:15.033Z,2.00
2018-04-05T16:08:48.482Z,2.30
2018-04-05T16:11:17.179Z,2.27
2018-04-05T16:13:46.737Z,2.60
2018-04-05T16:16:28.497Z,2.57
2018-04-05T16:19:02.703Z,2.80
2018-04-05T16:21:33.571Z,1.87
2018-04-05T16:24:10.482Z,2.33
2018-04-05T16:26:45.644Z,2.27
2018-04-05T16:29:24.505Z,2.50
2018-04-05T16:31:55.469Z,2.20
2018-04-05T16:34:26.023Z,2.50
2018-04-05T16:36:56.877Z,2.30
2018-04-05T16:39:32.876Z,2.40
2018-04-05T16:42:04.566Z,2.30
2018-04-05T16:44:35.137Z,2.53
2018-04-05T16:47:05.765Z,2.40
2018-04-05T16:49:38.785Z,2.23
2018-04-05T16:52:09.417Z,2.40
2018-04-05T16:54:39.999Z,2.20
2018-04-05T16:57:09.116Z,2.70
2018-04-05T16:59:41.217Z,2.60
2018-04-05T17:02:12.892Z,2.37
2018-04-05T17:04:42.381Z,2.50
2018-04-05T17:07:17.665Z,2.50
2018-04-05T17:09:50.200Z,3.03
2018-04-05T17:15:03.588Z,3.20
2018-04-05T17:17:33.156Z,3.77
2018-04-05T17:20:05.969Z,3.97
2018-04-05T17:22:37.046Z,3.87
2018-04-05T17:25:10.253Z,4.30
2018-04-05T17:27:45.566Z,4.60
2018-04-05T17:30:21.362Z,5.03
2018-04-05T17:32:55.824Z,5.17
2018-04-05T17:35:25.330Z,5.27
2018-04-05T17:37:56.626Z,5.17
2018-04-05T17:40:27.746Z,5.00
2018-04-05T17:43:01.228Z,5.40
2018-04-05T17:45:36.140Z,5.37
2018-04-05T17:48:08.732Z,6.30
2018-04-05T17:50:39.084Z,5.40
2018-04-05T17:53:09.419Z,5.50
2018-04-05T17:55:42.501Z,5.97
2018-04-05T18:00:58.649Z,4.93
2018-04-05T18:03:28.424Z,4.87
2018-04-05T18:05:59.034Z,3.97
2018-04-05T18:08:30.722Z,3.93
2018-04-05T18:11:00.368Z,3.50
2018-04-05T18:13:30.624Z,3.90
2018-04-05T18:16:01.856Z,3.23
2018-04-05T18:18:35.907Z,3.33
2018-04-05T18:21:06.631Z,2.77
2018-04-05T18:23:38.788Z,2.83
2018-04-05T18:26:08.404Z,2.87
2018-04-05T18:28:44.308Z,2.93
2018-04-05T18:31:13.711Z,2.60
2018-04-05T18:33:41.820Z,2.50
2018-04-05T18:36:11.452Z,3.30
2018-04-05T18:38:40.647Z,2.87
2018-04-05T18:41:12.650Z,2.40
2018-04-05T18:43:42.924Z,2.60
2018-04-05T18:46:16.827Z,2.70
2018-04-05T18:48:48.160Z,2.40
2018-04-05T18:51:19.389Z,2.40
2018-04-05T18:56:27.067Z,2.63
2018-04-05T18:58:56.684Z,2.90
2018-04-05T19:01:32.174Z,2.50
2018-04-05T19:04:02.326Z,2.50
2018-04-05T19:06:34.561Z,3.60
2018-04-05T19:09:06.539Z,2.53
2018-04-05T19:11:35.139Z,2.97
2018-04-05T19:14:07.073Z,2.40
2018-04-05T19:16:38.887Z,2.73
2018-04-05T19:19:07.811Z,2.27
2018-04-05T19:21:36.971Z,3.17
2018-04-05T19:24:12.999Z,2.23
2018-04-05T19:29:22.375Z,2.90
2018-04-05T19:31:56.540Z,2.47
2018-04-05T19:34:26.399Z,2.57
2018-04-05T19:36:59.646Z,2.70
2018-04-05T19:39:37.039Z,2.17
2018-04-05T19:42:06.892Z,2.47
2018-04-05T19:44:39.676Z,2.70
2018-04-05T19:47:09.250Z,2.53
2018-04-05T19:49:43.360Z,2.50
2018-04-05T19:52:13.276Z,2.40
2018-04-05T19:54:43.023Z,2.30
2018-04-05T19:57:13.156Z,2.50
2018-04-05T19:59:42.658Z,1.80
2018-04-05T20:02:16.547Z,2.43
2018-04-05T20:04:47.006Z,2.20
2018-04-05T20:07:21.763Z,1.63
2018-04-05T20:09:50.769Z,2.53
2018-04-05T20:12:19.787Z,1.90
2018-04-05T20:14:52.884Z,2.00
2018-04-05T20:17:23.460Z,2.30
2018-04-05T20:19:55.403Z,2.47
2018-04-05T20:22:28.542Z,2.37
2018-04-05T20:24:59.641Z,3.00
2018-04-05T20:27:31.385Z,2.60
2018-04-05T20:30:03.815Z,2.53
2018-04-05T20:32:34.985Z,3.00
2018-04-05T20:35:08.073Z,3.40
2018-04-05T20:37:42.064Z,3.10
2018-04-05T20:42:51.520Z,2.80
2018-04-05T20:45:26.416Z,2.90
2018-04-05T20:47:54.307Z,4.27
2018-04-05T20:50:26.621Z,2.80
2018-04-05T20:52:59.260Z,2.37
2018-04-05T20:55:30.150Z,2.57
2018-04-05T20:57:59.007Z,3.00
2018-04-05T21:00:29.465Z,2.67
2018-04-05T21:02:59.357Z,2.20
2018-04-05T21:05:30.401Z,3.63
2018-04-05T21:08:00.855Z,3.47
2018-04-05T21:10:30.384Z,3.43
2018-04-05T21:12:59.294Z,2.80
2018-04-05T21:15:30.250Z,2.90
2018-04-05T21:20:52.867Z,3.13
2018-04-05T21:23:22.940Z,3.80
2018-04-05T21:25:50.490Z,4.20
2018-04-05T21:28:20.613Z,3.10
2018-04-05T21:33:41.695Z,2.30
2018-04-05T21:36:10.027Z,2.80
2018-04-05T21:38:39.032Z,4.17
2018-04-05T21:41:09.271Z,2.67
2018-04-05T21:43:38.776Z,4.33
2018-04-05T21:46:13.793Z,2.97
2018-04-05T21:48:43.019Z,3.07
2018-04-05T21:51:11.587Z,3.03
2018-04-05T21:53:40.200Z,2.73
2018-04-05T21:56:08.623Z,2.60
2018-04-05T22:01:31.682Z,2.43
2018-04-05T22:04:03.268Z,3.10
2018-04-05T22:09:34.717Z,3.20
2018-04-05T22:12:04.298Z,3.07
2018-04-05T22:14:33.443Z,2.70
2018-04-05T22:17:01.956Z,3.80
2018-04-05T22:19:33.039Z,3.13
2018-04-05T22:27:47.946Z,3.50
2018-04-05T22:30:17.798Z,3.73
2018-04-05T22:32:47.102Z,3.93
2018-04-05T22:35:16.994Z,3.90
2018-04-05T22:54:46.014Z,3.17
2018-04-05T22:57:13.565Z,2.67
2018-04-05T22:59:42.119Z,2.27
2018-04-05T23:02:13.730Z,2.50
2018-04-05T23:04:44.355Z,3.13
2018-04-05T23:07:14.146Z,2.50
2018-04-05T23:09:41.969Z,2.40
2018-04-05T23:12:10.467Z,2.73
2018-04-05T23:14:39.711Z,2.47
2018-04-05T23:17:11.428Z,2.27
2018-04-05T23:19:41.220Z,2.90
2018-04-05T23:22:09.742Z,2.10
2018-04-05T23:24:38.084Z,3.23
2018-04-05T23:27:05.648Z,2.50
2018-04-05T23:29:33.222Z,2.83
2018-04-05T23:38:01.480Z,2.60
2018-04-05T23:40:29.073Z,2.50
2018-04-05T23:42:56.671Z,2.00
2018-04-05T23:45:25.057Z,2.30
2018-04-05T23:47:53.521Z,3.50
2018-04-05T23:50:21.108Z,3.00
2018-04-05T23:53:00.143Z,2.60
